createdAt,value
2019-06-08T00:00:45.634Z,100594.45
2019-06-08T00:05:39.068Z,100595.58
2019-06-08T00:10:32.451Z,100597.20
2019-06-08T00:15:26.077Z,100597.45
2019-06-08T00:20:19.778Z,100599.94
2019-06-08T00:25:13.789Z,100600.50
2019-06-08T00:30:08.567Z,100608.77
2019-06-08T00:35:02.142Z,100606.36
2019-06-08T00:39:55.947Z,100612.30
2019-06-08T00:44:49.563Z,100625.32
2019-06-08T00:49:43.456Z,100641.20
2019-06-08T00:54:37.045Z,100629.82
2019-06-08T00:59:30.529Z,100650.86
2019-06-08T01:04:24.811Z,100664.43
2019-06-08T01:09:18.547Z,100677.36
2019-06-08T01:14:13.026Z,100674.42
2019-06-08T01:19:06.557Z,100680.00
2019-06-08T01:24:01.906Z,100682.89
2019-06-08T01:28:55.183Z,100675.75
2019-06-08T01:33:48.561Z,100672.38
2019-06-08T01:38:41.760Z,100681.56
2019-06-08T01:43:37.683Z,100677.55
2019-06-08T01:48:32.407Z,100691.37
2019-06-08T01:53:26.821Z,100688.14
2019-06-08T01:58:20.839Z,100693.36
2019-06-08T02:03:14.497Z,100704.90
2019-06-08T02:08:07.889Z,100708.92
2019-06-08T02:13:01.248Z,100713.91
2019-06-08T02:17:54.795Z,100716.29
2019-06-08T02:22:48.378Z,100725.08
2019-06-08T02:27:41.844Z,100734.86
2019-06-08T02:32:37.269Z,100736.00
2019-06-08T02:37:30.942Z,100756.32
2019-06-08T02:42:24.374Z,100757.23
2019-06-08T02:47:17.968Z,100765.83
2019-06-08T02:52:11.642Z,100774.31
2019-06-08T02:57:05.352Z,100776.45
2019-06-08T03:02:01.786Z,100777.13
2019-06-08T03:06:57.041Z,100805.74
2019-06-08T03:11:51.891Z,100806.61
2019-06-08T03:16:45.409Z,100811.17
2019-06-08T03:21:40.454Z,100818.83
2019-06-08T03:26:36.739Z,100820.52
2019-06-08T03:31:38.251Z,100819.58
2019-06-08T03:36:27.749Z,100824.29
2019-06-08T03:41:21.314Z,100833.69
2019-06-08T03:46:14.886Z,100830.61
2019-06-08T03:51:08.223Z,100836.13
2019-06-08T03:56:01.828Z,100850.87
2019-06-08T04:00:55.411Z,100847.56
2019-06-08T04:05:50.171Z,100851.45
2019-06-08T04:10:44.714Z,100858.30
2019-06-08T04:15:40.345Z,100868.63
2019-06-08T04:20:34.590Z,100866.77
2019-06-08T04:25:28.346Z,100875.42
2019-06-08T04:30:22.122Z,100880.48
2019-06-08T04:35:15.834Z,100895.45
2019-06-08T04:40:10.635Z,100896.73
2019-06-08T04:45:05.722Z,100888.45
2019-06-08T04:49:59.221Z,100904.17
2019-06-08T04:54:52.818Z,100920.80
2019-06-08T04:59:48.393Z,100922.55
2019-06-08T05:04:43.204Z,100928.61
2019-06-08T05:09:36.925Z,100944.28
2019-06-08T05:14:30.420Z,100933.83
2019-06-08T05:19:23.977Z,100945.27
2019-06-08T05:24:17.562Z,100941.50
2019-06-08T05:29:11.087Z,100946.84
2019-06-08T05:34:04.532Z,100944.45
2019-06-08T05:38:58.016Z,100950.58
2019-06-08T05:43:51.502Z,100963.95
2019-06-08T05:48:45.912Z,100953.80
2019-06-08T05:53:39.735Z,100962.88
2019-06-08T05:58:33.324Z,100968.41
2019-06-08T06:03:28.641Z,100979.14
2019-06-08T06:08:22.075Z,100998.67
2019-06-08T06:13:15.547Z,101007.80
2019-06-08T06:18:09.036Z,101016.98
2019-06-08T06:23:02.414Z,101021.97
2019-06-08T06:27:57.137Z,101022.52
2019-06-08T06:32:51.958Z,101039.60
2019-06-08T06:37:45.944Z,101044.63
2019-06-08T06:42:39.660Z,101045.79
2019-06-08T06:47:33.184Z,101041.06
2019-06-08T06:52:26.678Z,101054.64
2019-06-08T06:57:20.097Z,101075.74
2019-06-08T07:02:13.691Z,101069.86
2019-06-08T07:12:10.439Z,101087.02
2019-06-08T07:17:04.068Z,101081.47
2019-06-08T07:21:59.161Z,101092.02
2019-06-08T07:26:54.579Z,101091.63
2019-06-08T07:31:49.932Z,101088.98
2019-06-08T07:36:43.842Z,101096.46
2019-06-08T07:41:39.181Z,101104.80
2019-06-08T07:46:32.889Z,101091.53
2019-06-08T07:51:26.459Z,101107.96
2019-06-08T07:56:19.874Z,101116.78
2019-06-08T08:01:13.398Z,101113.41
2019-06-08T08:06:07.079Z,101121.19
2019-06-08T08:11:02.413Z,101142.71
2019-06-08T08:15:58.552Z,101138.98
2019-06-08T08:20:51.227Z,101145.63
2019-06-08T08:25:44.905Z,101139.88
2019-06-08T08:30:38.357Z,101139.07
2019-06-08T08:35:33.677Z,101155.96
2019-06-08T08:40:28.183Z,101162.40
2019-06-08T08:45:22.079Z,101166.23
2019-06-08T08:50:15.744Z,101184.53
2019-06-08T08:55:09.889Z,101187.39
2019-06-08T09:00:05.126Z,101194.59
2019-06-08T09:05:02.000Z,101201.11
2019-06-08T09:09:55.414Z,101204.33
2019-06-08T09:14:51.886Z,101191.52
2019-06-08T09:19:45.131Z,101189.92
2019-06-08T09:24:39.144Z,101203.39
2019-06-08T09:29:32.802Z,101193.27
2019-06-08T09:34:28.299Z,101207.02
2019-06-08T09:39:21.865Z,101233.80
2019-06-08T09:44:18.292Z,101248.80
2019-06-08T09:49:11.796Z,101234.28
2019-06-08T09:54:08.525Z,101250.55
2019-06-08T09:59:04.042Z,101255.85
2019-06-08T10:03:58.798Z,101245.86
2019-06-08T10:08:51.599Z,101253.35
2019-06-08T10:13:47.647Z,101244.80
2019-06-08T10:18:41.067Z,101249.45
2019-06-08T10:23:34.993Z,101259.13
2019-06-08T10:28:29.080Z,101263.75
2019-06-08T10:33:22.683Z,101271.97
2019-06-08T10:38:18.147Z,101267.06
2019-06-08T10:43:12.046Z,101275.62
2019-06-08T10:48:06.344Z,101273.95
2019-06-08T10:53:03.684Z,101274.09
2019-06-08T10:57:55.531Z,101268.34
2019-06-08T11:02:49.069Z,101282.24
2019-06-08T11:07:42.543Z,101277.11
2019-06-08T11:12:37.710Z,101292.56
2019-06-08T11:17:31.268Z,101301.92
2019-06-08T11:22:24.789Z,101295.99
2019-06-08T11:27:18.762Z,101315.89
2019-06-08T11:32:13.366Z,101298.97
2019-06-08T11:37:11.434Z,101294.36
2019-06-08T11:42:04.406Z,101322.79
2019-06-08T11:46:58.330Z,101341.20
2019-06-08T11:51:52.411Z,101329.41
2019-06-08T11:56:48.068Z,101328.42
2019-06-08T12:01:41.378Z,101329.09
2019-06-08T12:06:37.159Z,101338.33
2019-06-08T12:11:31.107Z,101340.12
2019-06-08T12:16:24.639Z,101349.01
2019-06-08T12:21:18.994Z,101341.55
2019-06-08T12:26:12.408Z,101348.98
2019-06-08T12:31:11.965Z,101345.83
2019-06-08T12:36:02.739Z,101348.50
2019-06-08T12:40:58.511Z,101335.31
2019-06-08T12:45:51.874Z,101345.71
2019-06-08T12:50:47.665Z,101334.23
2019-06-08T12:55:40.650Z,101348.02
2019-06-08T13:00:34.246Z,101334.55
2019-06-08T13:05:27.698Z,101317.05
2019-06-08T13:10:24.058Z,101321.95
2019-06-08T13:15:19.561Z,101338.41
2019-06-08T13:20:21.468Z,101347.45
2019-06-08T13:25:28.443Z,101358.90
2019-06-08T13:30:09.555Z,101352.11
2019-06-08T13:35:03.296Z,101363.27
2019-06-08T13:39:59.191Z,101375.67
2019-06-08T13:44:52.121Z,101372.56
2019-06-08T13:49:47.862Z,101380.20
2019-06-08T13:54:40.800Z,101373.99
2019-06-08T13:59:34.621Z,101376.84
2019-06-08T14:04:28.411Z,101379.47
2019-06-08T14:09:23.307Z,101375.16
2019-06-08T14:14:19.307Z,101384.61
2019-06-08T14:19:12.419Z,101368.59
2019-06-08T14:24:07.763Z,101361.39
2019-06-08T14:29:01.765Z,101370.55
2019-06-08T14:33:56.898Z,101366.61
2019-06-08T14:38:50.040Z,101396.44
2019-06-08T14:43:43.202Z,101394.98
2019-06-08T14:48:37.913Z,101386.45
2019-06-08T14:53:31.399Z,101375.28
2019-06-08T14:58:29.343Z,101378.95
2019-06-08T15:03:21.137Z,101373.61
2019-06-08T15:08:14.381Z,101387.91
2019-06-08T15:13:07.867Z,101383.54
2019-06-08T15:18:04.716Z,101402.33
2019-06-08T15:22:57.903Z,101394.74
2019-06-08T15:27:51.695Z,101398.23
2019-06-08T15:32:47.667Z,101393.38
2019-06-08T15:37:41.107Z,101398.50
2019-06-08T15:42:34.913Z,101398.20
2019-06-08T15:47:28.266Z,101404.41
2019-06-08T15:52:22.366Z,101406.20
2019-06-08T15:57:17.845Z,101414.80
2019-06-08T16:02:10.972Z,101402.64
2019-06-08T16:07:04.638Z,101410.53
2019-06-08T16:11:59.601Z,101426.08
2019-06-08T16:16:53.103Z,101434.26
2019-06-08T16:21:46.325Z,101439.41
2019-06-08T16:26:52.177Z,101440.90
2019-06-08T16:31:35.390Z,101446.17
2019-06-08T16:36:29.389Z,101442.22
2019-06-08T16:41:22.765Z,101447.61
2019-06-08T16:46:15.900Z,101455.83
2019-06-08T16:51:09.028Z,101458.59
2019-06-08T16:56:02.657Z,101459.61
2019-06-08T17:00:55.786Z,101470.69
2019-06-08T17:05:48.916Z,101479.26
2019-06-08T17:10:42.149Z,101484.86
2019-06-08T17:15:36.137Z,101520.17
2019-06-08T17:20:30.072Z,101595.61
2019-06-08T17:25:23.817Z,101574.15
2019-06-08T17:30:17.296Z,101556.20
2019-06-08T17:35:10.764Z,101553.63
2019-06-08T17:40:05.523Z,101543.86
2019-06-08T17:44:58.773Z,101538.48
2019-06-08T17:49:52.245Z,101544.20
2019-06-08T17:54:45.804Z,101555.22
2019-06-08T17:59:39.507Z,101564.43
2019-06-08T18:04:33.465Z,101569.80
2019-06-08T18:09:28.113Z,101570.38
2019-06-08T18:14:21.656Z,101575.33
2019-06-08T18:19:28.849Z,101583.27
2019-06-08T18:24:21.992Z,101587.25
2019-06-08T18:29:15.364Z,101588.02
2019-06-08T18:34:08.514Z,101564.20
2019-06-08T18:39:02.248Z,101595.63
2019-06-08T18:43:58.179Z,101598.67
2019-06-08T18:48:51.289Z,101600.80
2019-06-08T18:54:05.255Z,101609.23
2019-06-08T18:58:40.114Z,101611.67
2019-06-08T19:03:33.551Z,101609.92
2019-06-08T19:08:27.846Z,101611.00
2019-06-08T19:13:21.348Z,101602.08
2019-06-08T19:18:14.777Z,101610.38
2019-06-08T19:23:09.547Z,101621.27
2019-06-08T19:28:02.896Z,101627.75
2019-06-08T19:32:57.831Z,101641.22
2019-06-08T19:37:53.551Z,101650.83
2019-06-08T19:42:56.845Z,101648.49
2019-06-08T19:47:42.487Z,101654.89
2019-06-08T19:52:41.030Z,101661.63
2019-06-08T19:57:31.391Z,101664.36
2019-06-08T20:02:24.454Z,101669.91
2019-06-08T20:07:17.981Z,101662.78
2019-06-08T20:12:11.518Z,101668.84
2019-06-08T20:17:04.974Z,101679.82
2019-06-08T20:21:58.593Z,101685.70
2019-06-08T20:26:53.394Z,101692.26
2019-06-08T20:31:48.550Z,101698.37
2019-06-08T20:36:43.823Z,101692.06
2019-06-08T20:41:38.555Z,101699.08
2019-06-08T20:46:32.094Z,101699.70
2019-06-08T20:51:27.864Z,101710.89
2019-06-08T20:56:21.634Z,101717.25
2019-06-08T21:01:15.113Z,101727.66
2019-06-08T21:06:08.818Z,101730.20
2019-06-08T21:11:02.180Z,101725.63
2019-06-08T21:16:00.289Z,101723.16
2019-06-08T21:20:51.203Z,101729.88
2019-06-08T21:25:45.076Z,101724.89
2019-06-08T21:30:39.342Z,101735.80
2019-06-08T21:35:33.046Z,101734.59
2019-06-08T21:40:28.191Z,101743.55
2019-06-08T21:45:21.879Z,101746.69
2019-06-08T21:50:15.280Z,101746.05
2019-06-08T21:55:08.815Z,101747.18
2019-06-08T22:00:21.961Z,101749.78
2019-06-08T22:05:03.009Z,101752.13
2019-06-08T22:09:54.132Z,101745.59
2019-06-08T22:14:47.873Z,101750.70
2019-06-08T22:19:41.490Z,101757.36
2019-06-08T22:24:35.106Z,101754.36
2019-06-08T22:29:29.024Z,101753.27
2019-06-08T22:34:22.490Z,101758.09
2019-06-08T22:39:17.588Z,101765.27
2019-06-08T22:44:11.143Z,101764.00
2019-06-08T22:49:05.012Z,101763.45
2019-06-08T22:54:00.689Z,101761.95
2019-06-08T22:58:55.795Z,101758.55
2019-06-08T23:03:49.211Z,101758.91
2019-06-08T23:08:43.093Z,101755.59
2019-06-08T23:13:37.713Z,101758.67
2019-06-08T23:18:31.505Z,101762.16
2019-06-08T23:23:27.179Z,101760.81
2019-06-08T23:28:20.390Z,101760.34
2019-06-08T23:33:13.761Z,101760.48
2019-06-08T23:38:09.274Z,101758.90
2019-06-08T23:43:04.190Z,101751.95
2019-06-08T23:47:59.926Z,101756.75
2019-06-08T23:52:53.320Z,101760.38
2019-06-08T23:57:46.962Z,101764.20
